createdAt,value
2018-07-07T00:00:32.690Z,75.90
2018-07-07T00:03:00.387Z,75.62
2018-07-07T00:05:28.119Z,75.86
2018-07-07T00:07:55.854Z,77.05
2018-07-07T00:10:34.419Z,76.16
2018-07-07T00:13:02.288Z,76.56
2018-07-07T00:15:29.933Z,76.01
2018-07-07T00:17:57.671Z,76.44
2018-07-07T00:20:25.482Z,77.20
2018-07-07T00:22:53.158Z,76.93
2018-07-07T00:25:21.465Z,77.07
2018-07-07T00:27:50.008Z,76.58
2018-07-07T00:30:18.360Z,76.81
2018-07-07T00:32:46.189Z,76.78
2018-07-07T00:35:13.987Z,77.41
2018-07-07T00:37:41.746Z,77.63
2018-07-07T00:40:09.983Z,76.81
2018-07-07T00:42:38.609Z,76.96
2018-07-07T00:45:06.381Z,77.38
2018-07-07T00:47:34.078Z,77.79
2018-07-07T00:50:02.462Z,77.45
2018-07-07T00:52:30.358Z,78.06
2018-07-07T00:54:57.988Z,78.29
2018-07-07T00:57:25.806Z,78.26
2018-07-07T00:59:53.612Z,78.01
2018-07-07T01:02:22.537Z,78.63
2018-07-07T01:04:52.047Z,78.40
2018-07-07T01:07:20.215Z,78.87
2018-07-07T01:09:48.966Z,78.61
2018-07-07T01:12:16.990Z,78.94
2018-07-07T01:14:44.860Z,78.57
2018-07-07T01:17:12.545Z,78.59
2018-07-07T01:19:40.371Z,78.25
2018-07-07T01:22:10.321Z,78.22
2018-07-07T01:24:39.905Z,77.84
2018-07-07T01:27:07.850Z,78.34
2018-07-07T01:29:35.558Z,77.08
2018-07-07T01:32:04.230Z,76.56
2018-07-07T01:34:31.907Z,77.23
2018-07-07T01:36:59.582Z,75.94
2018-07-07T01:39:27.172Z,76.42
2018-07-07T01:41:54.795Z,75.77
2018-07-07T01:44:22.514Z,75.68
2018-07-07T01:46:50.138Z,75.88
2018-07-07T01:49:18.006Z,76.28
2018-07-07T01:51:45.614Z,77.15
2018-07-07T01:54:13.310Z,76.73
2018-07-07T01:56:41.117Z,77.00
2018-07-07T01:59:08.783Z,77.31
2018-07-07T02:01:36.571Z,77.23
2018-07-07T02:04:04.526Z,77.58
2018-07-07T02:06:32.226Z,77.72
2018-07-07T02:08:59.920Z,77.64
2018-07-07T02:11:27.612Z,77.96
2018-07-07T02:13:55.502Z,77.35
2018-07-07T02:16:35.705Z,77.45
2018-07-07T02:19:03.863Z,77.33
2018-07-07T02:21:31.642Z,76.66
2018-07-07T02:23:59.402Z,77.61
2018-07-07T02:26:27.188Z,77.24
2018-07-07T02:28:54.859Z,77.67
2018-07-07T02:31:22.565Z,77.04
2018-07-07T02:33:50.206Z,76.89
2018-07-07T02:36:17.938Z,76.08
2018-07-07T02:38:45.591Z,76.32
2018-07-07T02:41:13.390Z,76.32
2018-07-07T02:43:41.160Z,77.69
2018-07-07T02:46:08.837Z,77.93
2018-07-07T02:48:43.313Z,77.18
2018-07-07T02:51:11.026Z,77.39
2018-07-07T02:53:38.726Z,77.88
2018-07-07T02:56:06.674Z,78.11
2018-07-07T02:58:34.517Z,77.81
2018-07-07T03:01:02.181Z,77.75
2018-07-07T03:03:29.915Z,77.86
2018-07-07T03:05:57.606Z,78.76
2018-07-07T03:08:25.251Z,78.75
2018-07-07T03:10:52.968Z,78.97
2018-07-07T03:13:20.636Z,79.51
2018-07-07T03:15:48.354Z,78.04
2018-07-07T03:18:16.086Z,79.40
2018-07-07T03:20:43.865Z,78.93
2018-07-07T03:23:11.679Z,79.37
2018-07-07T03:25:39.367Z,78.72
2018-07-07T03:28:07.022Z,78.17
2018-07-07T03:30:34.718Z,78.51
2018-07-07T03:33:02.649Z,78.91
2018-07-07T03:35:30.396Z,78.74
2018-07-07T03:37:59.151Z,78.34
2018-07-07T03:40:26.731Z,78.72
2018-07-07T03:43:00.154Z,78.20
2018-07-07T03:45:27.853Z,78.30
2018-07-07T03:47:58.379Z,77.99
2018-07-07T03:50:27.322Z,78.04
2018-07-07T03:52:56.033Z,78.04
2018-07-07T03:55:23.689Z,78.62
2018-07-07T03:57:51.378Z,78.23
2018-07-07T04:00:19.010Z,78.77
2018-07-07T04:02:46.673Z,78.59
2018-07-07T04:05:15.430Z,78.18
2018-07-07T04:07:43.054Z,78.01
2018-07-07T04:10:33.683Z,77.16
2018-07-07T04:13:01.378Z,77.55
2018-07-07T04:15:29.373Z,77.64
2018-07-07T04:17:57.194Z,77.55
2018-07-07T04:20:25.708Z,77.26
2018-07-07T04:22:54.455Z,76.90
2018-07-07T04:25:22.242Z,76.92
2018-07-07T04:27:49.926Z,76.53
2018-07-07T04:30:17.559Z,76.66
2018-07-07T04:32:45.168Z,77.44
2018-07-07T04:35:12.924Z,76.26
2018-07-07T04:37:40.545Z,76.74
2018-07-07T04:40:08.210Z,76.79
2018-07-07T04:42:35.824Z,76.76
2018-07-07T04:45:03.630Z,76.10
2018-07-07T04:47:31.275Z,75.79
2018-07-07T04:49:59.005Z,75.83
2018-07-07T04:52:26.664Z,76.40
2018-07-07T04:54:54.315Z,74.99
2018-07-07T04:57:23.100Z,74.46
2018-07-07T04:59:50.771Z,76.03
2018-07-07T05:02:18.425Z,76.24
2018-07-07T05:04:46.122Z,75.70
2018-07-07T05:07:13.850Z,75.63
2018-07-07T05:09:41.469Z,74.82
2018-07-07T05:12:09.086Z,74.10
2018-07-07T05:14:36.703Z,73.03
2018-07-07T05:17:04.553Z,73.80
2018-07-07T05:19:32.258Z,73.16
2018-07-07T05:21:59.990Z,72.56
2018-07-07T05:24:27.609Z,72.18
2018-07-07T05:26:55.206Z,71.04
2018-07-07T05:31:23.210Z,70.59
2018-07-07T05:33:51.292Z,69.74
2018-07-07T05:36:19.030Z,70.43
2018-07-07T05:38:46.689Z,70.50
2018-07-07T05:41:14.383Z,70.07
2018-07-07T05:43:42.965Z,70.06
2018-07-07T05:46:12.093Z,68.79
2018-07-07T05:48:41.583Z,67.83
2018-07-07T05:51:09.297Z,67.90
2018-07-07T05:53:36.975Z,66.80
2018-07-07T05:56:04.832Z,65.44
2018-07-07T05:58:32.563Z,66.46
2018-07-07T06:01:00.272Z,65.98
2018-07-07T06:03:28.070Z,65.06
2018-07-07T06:05:55.812Z,65.69
2018-07-07T06:08:23.464Z,64.00
2018-07-07T06:10:51.495Z,63.52
2018-07-07T06:13:19.334Z,62.86
2018-07-07T06:15:47.035Z,63.38
2018-07-07T06:18:14.747Z,62.76
2018-07-07T06:20:42.469Z,63.43
2018-07-07T06:23:10.183Z,61.99
2018-07-07T06:25:37.844Z,61.19
2018-07-07T06:28:05.555Z,63.04
2018-07-07T06:30:33.231Z,62.51
2018-07-07T06:33:01.012Z,59.38
2018-07-07T06:35:29.019Z,60.73
2018-07-07T06:37:56.734Z,57.71
2018-07-07T06:40:24.448Z,58.65
2018-07-07T06:42:52.264Z,58.16
2018-07-07T06:45:19.999Z,58.83
2018-07-07T06:47:47.673Z,58.36
2018-07-07T06:50:15.420Z,59.34
2018-07-07T06:52:43.114Z,57.47
2018-07-07T06:55:10.915Z,56.75
2018-07-07T06:57:38.603Z,56.02
2018-07-07T07:00:06.348Z,54.58
2018-07-07T07:02:34.013Z,56.26
2018-07-07T07:05:01.808Z,56.27
2018-07-07T07:07:29.540Z,56.01
2018-07-07T07:09:57.195Z,56.54
2018-07-07T07:12:24.868Z,52.15
2018-07-07T07:14:52.811Z,54.48
2018-07-07T07:17:20.499Z,53.69
2018-07-07T07:19:48.163Z,52.16
2018-07-07T07:22:15.820Z,52.82
2018-07-07T07:24:43.507Z,52.26
2018-07-07T07:27:11.228Z,52.46
2018-07-07T07:29:39.027Z,53.13
2018-07-07T07:32:06.723Z,51.36
2018-07-07T07:34:34.485Z,52.11
2018-07-07T07:37:02.516Z,53.81
2018-07-07T07:39:30.188Z,50.14
2018-07-07T07:41:57.860Z,51.58
2018-07-07T07:44:25.541Z,51.44
2018-07-07T07:46:53.243Z,50.79
2018-07-07T07:49:20.900Z,50.91
2018-07-07T07:51:48.594Z,50.11
2018-07-07T07:54:16.334Z,49.21
2018-07-07T07:56:44.023Z,49.45
2018-07-07T07:59:11.664Z,49.27
2018-07-07T08:01:39.304Z,47.53
2018-07-07T08:04:06.981Z,48.59
2018-07-07T08:06:34.647Z,50.85
2018-07-07T08:09:02.538Z,49.81
2018-07-07T08:11:30.336Z,51.68
2018-07-07T08:13:58.055Z,49.09
2018-07-07T08:16:25.735Z,47.92
2018-07-07T08:18:53.479Z,49.20
2018-07-07T08:21:21.248Z,48.58
2018-07-07T08:23:48.919Z,48.40
2018-07-07T08:26:16.682Z,47.57
2018-07-07T08:28:44.343Z,46.12
2018-07-07T08:31:12.008Z,47.58
2018-07-07T08:33:39.960Z,49.58
2018-07-07T08:36:07.628Z,49.40
2018-07-07T08:38:35.352Z,46.36
2018-07-07T08:41:03.185Z,46.75
2018-07-07T08:43:30.964Z,48.42
2018-07-07T08:45:58.712Z,47.16
2018-07-07T08:48:26.399Z,46.62
2018-07-07T08:50:54.207Z,45.35
2018-07-07T08:53:21.870Z,43.42
2018-07-07T08:55:49.532Z,47.16
2018-07-07T08:58:30.165Z,47.42
2018-07-07T09:00:57.848Z,44.61
2018-07-07T09:03:25.505Z,44.64
2018-07-07T09:05:53.170Z,45.37
2018-07-07T09:08:20.836Z,46.59
2018-07-07T09:10:48.550Z,44.55
2018-07-07T09:13:16.219Z,45.47
2018-07-07T09:15:43.879Z,46.68
2018-07-07T09:18:11.528Z,44.30
2018-07-07T09:20:39.190Z,43.31
2018-07-07T09:23:06.868Z,42.28
2018-07-07T09:25:34.548Z,43.66
2018-07-07T09:28:02.227Z,43.98
2018-07-07T09:30:29.929Z,40.52
2018-07-07T09:32:57.597Z,42.29
2018-07-07T09:35:25.267Z,42.10
2018-07-07T09:37:52.963Z,40.84
2018-07-07T09:40:20.784Z,38.25
2018-07-07T09:42:48.507Z,40.61
2018-07-07T09:45:16.252Z,40.44
2018-07-07T09:47:43.942Z,41.37
2018-07-07T09:50:11.599Z,40.68
2018-07-07T09:52:39.282Z,38.92
2018-07-07T09:55:06.955Z,40.87
2018-07-07T09:57:34.651Z,40.55
2018-07-07T10:00:02.344Z,41.13
2018-07-07T10:02:30.189Z,41.02
2018-07-07T10:04:57.839Z,40.06
2018-07-07T10:07:25.569Z,40.08
2018-07-07T10:09:53.223Z,40.93
2018-07-07T10:12:20.879Z,37.57
2018-07-07T10:14:48.523Z,39.20
2018-07-07T10:17:16.239Z,39.19
2018-07-07T10:19:43.961Z,39.54
2018-07-07T10:22:11.620Z,39.49
2018-07-07T10:24:39.255Z,39.85
2018-07-07T10:27:06.932Z,37.10
2018-07-07T10:29:34.579Z,37.62
2018-07-07T10:32:02.243Z,37.36
2018-07-07T10:34:29.915Z,39.29
2018-07-07T10:36:57.608Z,36.88
2018-07-07T10:39:25.306Z,36.63
2018-07-07T10:41:53.012Z,38.29
2018-07-07T10:44:20.683Z,39.02
2018-07-07T10:46:48.632Z,39.40
2018-07-07T10:49:16.315Z,39.15
2018-07-07T10:51:43.999Z,37.61
2018-07-07T10:54:11.727Z,38.37
2018-07-07T10:56:39.406Z,36.54
2018-07-07T10:59:07.096Z,34.83
2018-07-07T11:01:34.772Z,38.28
2018-07-07T11:04:02.456Z,38.90
2018-07-07T11:06:30.115Z,37.09
2018-07-07T11:08:57.786Z,35.09
2018-07-07T11:11:25.464Z,34.53
2018-07-07T11:13:53.468Z,35.06
2018-07-07T11:16:21.491Z,33.12
2018-07-07T11:18:49.134Z,36.11
2018-07-07T11:21:16.835Z,37.04
2018-07-07T11:23:44.739Z,35.30
2018-07-07T11:26:12.515Z,34.23
2018-07-07T11:28:40.154Z,34.42
2018-07-07T11:31:07.830Z,34.53
2018-07-07T11:33:35.537Z,34.23
2018-07-07T11:36:03.238Z,36.00
2018-07-07T11:38:30.942Z,35.82
2018-07-07T11:40:58.621Z,35.60
2018-07-07T11:43:26.746Z,35.22
2018-07-07T11:45:54.755Z,35.77
2018-07-07T11:48:22.558Z,34.33
2018-07-07T11:50:50.252Z,32.32
2018-07-07T11:53:18.003Z,32.51
2018-07-07T11:55:45.700Z,33.90
2018-07-07T11:58:13.409Z,33.67
2018-07-07T12:00:41.166Z,33.11
2018-07-07T12:03:08.870Z,34.20
2018-07-07T12:05:36.606Z,35.97
2018-07-07T12:08:13.873Z,33.55
2018-07-07T12:10:35.369Z,34.27
2018-07-07T12:13:03.093Z,31.74
2018-07-07T12:15:30.724Z,32.06
2018-07-07T12:17:58.350Z,31.94
2018-07-07T12:20:26.120Z,32.14
2018-07-07T12:22:53.752Z,31.00
2018-07-07T12:25:21.492Z,31.56
2018-07-07T12:27:49.140Z,30.15
2018-07-07T12:30:16.824Z,32.35
2018-07-07T12:32:44.454Z,32.16
2018-07-07T12:35:12.147Z,31.36
2018-07-07T12:37:39.854Z,32.13
2018-07-07T12:40:07.510Z,33.35
2018-07-07T12:42:35.254Z,33.35
2018-07-07T12:45:03.046Z,32.38
2018-07-07T12:47:30.756Z,32.10
2018-07-07T12:49:58.426Z,31.52
2018-07-07T12:52:26.118Z,32.64
2018-07-07T12:54:53.846Z,32.69
2018-07-07T12:57:21.528Z,32.81
2018-07-07T12:59:49.146Z,31.82
2018-07-07T13:02:16.856Z,32.03
2018-07-07T13:04:44.490Z,33.48
2018-07-07T13:07:12.163Z,33.48
2018-07-07T13:09:39.798Z,33.13
2018-07-07T13:12:07.443Z,32.89
2018-07-07T13:14:35.093Z,32.59
2018-07-07T13:17:02.827Z,32.32
2018-07-07T13:19:30.478Z,32.97
2018-07-07T13:21:58.114Z,33.21
2018-07-07T13:24:25.746Z,32.59
2018-07-07T13:26:53.569Z,30.88
2018-07-07T13:29:21.205Z,31.04
2018-07-07T13:31:48.845Z,31.91
2018-07-07T13:34:16.530Z,31.50
2018-07-07T13:36:44.146Z,31.44
2018-07-07T13:39:12.023Z,32.04
2018-07-07T13:41:39.730Z,32.07
2018-07-07T13:44:07.362Z,33.00
2018-07-07T13:46:35.096Z,32.47
2018-07-07T13:49:02.865Z,33.58
2018-07-07T13:51:30.652Z,33.20
2018-07-07T13:53:58.418Z,30.90
2018-07-07T13:56:26.032Z,31.29
2018-07-07T13:58:53.670Z,30.89
2018-07-07T14:01:21.273Z,32.12
2018-07-07T14:03:48.910Z,30.87
2018-07-07T14:06:16.534Z,31.10
2018-07-07T14:08:44.216Z,32.23
2018-07-07T14:11:11.836Z,33.10
2018-07-07T14:13:39.503Z,33.07
2018-07-07T14:16:07.141Z,32.63
2018-07-07T14:18:34.746Z,32.28
2018-07-07T14:21:02.367Z,33.67
2018-07-07T14:23:30.118Z,32.29
2018-07-07T14:25:58.007Z,32.55
2018-07-07T14:28:25.650Z,31.98
2018-07-07T14:30:53.404Z,32.38
2018-07-07T14:33:21.109Z,30.86
2018-07-07T14:35:48.731Z,32.83
2018-07-07T14:38:16.508Z,32.73
2018-07-07T14:41:02.378Z,33.26
2018-07-07T14:43:50.838Z,32.38
2018-07-07T14:46:18.503Z,33.70
2018-07-07T14:48:46.142Z,33.23
2018-07-07T14:51:13.869Z,32.91
2018-07-07T14:53:41.578Z,33.41
2018-07-07T14:56:09.258Z,32.99
2018-07-07T14:58:36.880Z,33.51
2018-07-07T15:01:04.584Z,33.32
2018-07-07T15:03:32.282Z,32.30
2018-07-07T15:06:00.024Z,33.75
2018-07-07T15:08:27.671Z,33.36
2018-07-07T15:10:55.310Z,33.06
2018-07-07T15:13:22.974Z,33.44
2018-07-07T15:15:50.623Z,33.91
2018-07-07T15:18:18.251Z,34.84
2018-07-07T15:20:45.863Z,34.45
2018-07-07T15:23:13.470Z,34.50
2018-07-07T15:25:41.181Z,34.47
2018-07-07T15:28:08.810Z,34.82
2018-07-07T15:30:36.519Z,35.13
2018-07-07T15:33:04.231Z,34.50
2018-07-07T15:35:31.938Z,34.99
2018-07-07T15:37:59.589Z,35.22
2018-07-07T15:40:27.199Z,35.02
2018-07-07T15:42:54.930Z,34.81
2018-07-07T15:45:22.591Z,34.50
2018-07-07T15:47:50.214Z,34.37
2018-07-07T15:50:17.923Z,34.54
2018-07-07T15:52:45.629Z,33.90
2018-07-07T15:55:13.395Z,34.78
2018-07-07T16:00:39.630Z,34.56
2018-07-07T16:03:07.371Z,34.44
2018-07-07T16:05:35.014Z,35.10
2018-07-07T16:08:02.649Z,36.77
2018-07-07T16:10:34.770Z,34.67
2018-07-07T16:13:02.437Z,35.69
2018-07-07T16:15:30.062Z,35.43
2018-07-07T16:17:57.822Z,35.24
2018-07-07T16:20:25.463Z,33.80
2018-07-07T16:22:53.211Z,34.21
2018-07-07T16:25:20.817Z,34.91
2018-07-07T16:27:48.429Z,35.83
2018-07-07T16:30:16.039Z,35.26
2018-07-07T16:32:43.683Z,35.73
2018-07-07T16:35:11.421Z,38.57
2018-07-07T16:37:39.160Z,39.87
2018-07-07T16:40:06.802Z,42.26
2018-07-07T16:42:36.011Z,41.33
2018-07-07T16:45:03.830Z,44.21
2018-07-07T16:47:31.622Z,41.04
2018-07-07T16:49:59.318Z,41.08
2018-07-07T16:52:27.446Z,38.32
2018-07-07T16:54:55.193Z,36.67
2018-07-07T16:57:23.698Z,38.27
2018-07-07T16:59:51.370Z,37.46
2018-07-07T17:02:19.162Z,38.68
2018-07-07T17:04:46.861Z,36.74
2018-07-07T17:07:14.531Z,36.94
2018-07-07T17:09:42.386Z,37.39
2018-07-07T17:12:10.159Z,36.50
2018-07-07T17:14:37.975Z,37.92
2018-07-07T17:17:05.693Z,38.88
2018-07-07T17:19:34.028Z,39.17
2018-07-07T17:22:01.695Z,39.64
2018-07-07T17:24:30.383Z,37.92
2018-07-07T17:26:58.438Z,40.20
2018-07-07T17:29:26.586Z,38.58
2018-07-07T17:31:54.237Z,38.58
2018-07-07T17:34:21.954Z,39.23
2018-07-07T17:36:50.097Z,39.13
2018-07-07T17:39:18.215Z,38.32
2018-07-07T17:41:46.479Z,38.79
2018-07-07T17:44:14.161Z,38.93
2018-07-07T17:46:41.936Z,40.18
2018-07-07T17:49:09.742Z,39.30
2018-07-07T17:51:37.382Z,39.79
2018-07-07T17:54:05.135Z,39.57
2018-07-07T17:56:32.795Z,39.72
2018-07-07T17:59:01.303Z,39.43
2018-07-07T18:01:29.026Z,39.65
2018-07-07T18:03:57.066Z,39.11
2018-07-07T18:06:24.750Z,39.68
2018-07-07T18:08:52.350Z,39.71
2018-07-07T18:11:20.098Z,40.64
2018-07-07T18:13:47.769Z,40.38
2018-07-07T18:16:15.425Z,40.31
2018-07-07T18:18:43.087Z,39.82
2018-07-07T18:21:10.847Z,40.29
2018-07-07T18:23:38.478Z,39.98
2018-07-07T18:26:06.202Z,40.28
2018-07-07T18:28:33.851Z,40.03
2018-07-07T18:31:02.977Z,40.92
2018-07-07T18:33:30.503Z,40.94
2018-07-07T18:35:58.122Z,40.46
2018-07-07T18:38:25.849Z,40.92
2018-07-07T18:40:53.715Z,40.57
2018-07-07T18:43:21.339Z,40.89
2018-07-07T18:45:48.953Z,40.61
2018-07-07T18:48:16.563Z,41.95
2018-07-07T18:50:44.179Z,41.05
2018-07-07T18:53:11.901Z,42.35
2018-07-07T18:55:39.498Z,42.07
2018-07-07T18:58:07.170Z,42.12
2018-07-07T19:00:34.815Z,42.18
2018-07-07T19:03:02.460Z,42.22
2018-07-07T19:05:30.150Z,43.97
2018-07-07T19:07:57.874Z,44.54
2018-07-07T19:10:34.248Z,43.84
2018-07-07T19:13:01.930Z,45.23
2018-07-07T19:15:29.709Z,45.67
2018-07-07T19:17:57.339Z,44.66
2018-07-07T19:20:30.650Z,45.64
2018-07-07T19:23:04.056Z,45.18
2018-07-07T19:25:37.652Z,46.22
2018-07-07T19:28:05.439Z,47.38
2018-07-07T19:30:33.143Z,47.74
2018-07-07T19:33:06.629Z,47.01
2018-07-07T19:35:40.033Z,47.57
2018-07-07T19:38:07.794Z,47.84
2018-07-07T19:40:35.533Z,48.46
2018-07-07T19:43:03.229Z,49.51
2018-07-07T19:45:30.902Z,49.50
2018-07-07T19:47:58.640Z,49.93
2018-07-07T19:50:27.350Z,50.13
2018-07-07T19:52:54.989Z,49.28
2018-07-07T19:55:22.663Z,50.59
2018-07-07T19:57:51.085Z,51.33
2018-07-07T20:00:18.815Z,50.18
2018-07-07T20:02:46.468Z,50.94
2018-07-07T20:05:14.119Z,51.11
2018-07-07T20:07:41.841Z,50.97
2018-07-07T20:10:33.173Z,51.64
2018-07-07T20:13:00.881Z,51.23
2018-07-07T20:15:40.342Z,51.64
2018-07-07T20:18:07.906Z,51.55
2018-07-07T20:20:41.534Z,51.94
2018-07-07T20:23:16.390Z,51.98
2018-07-07T20:25:50.219Z,52.77
2018-07-07T20:28:23.796Z,53.58
2018-07-07T20:30:51.491Z,52.90
2018-07-07T20:33:19.175Z,52.97
2018-07-07T20:35:46.900Z,53.74
2018-07-07T20:38:14.616Z,54.44
2018-07-07T20:40:42.227Z,52.94
2018-07-07T20:43:09.866Z,52.81
2018-07-07T20:45:37.548Z,53.02
2018-07-07T20:48:05.224Z,53.60
2018-07-07T20:50:32.977Z,53.35
2018-07-07T20:53:00.581Z,54.26
2018-07-07T20:55:28.325Z,54.17
2018-07-07T20:57:56.053Z,54.10
2018-07-07T21:00:23.678Z,54.54
2018-07-07T21:02:51.386Z,55.05
2018-07-07T21:05:19.026Z,55.26
2018-07-07T21:07:46.738Z,54.04
2018-07-07T21:10:34.188Z,54.49
2018-07-07T21:13:01.981Z,54.35
2018-07-07T21:15:29.593Z,55.67
2018-07-07T21:17:57.350Z,56.06
2018-07-07T21:20:24.931Z,55.13
2018-07-07T21:22:52.630Z,56.29
2018-07-07T21:25:20.268Z,56.31
2018-07-07T21:27:47.945Z,54.93
2018-07-07T21:30:15.584Z,56.56
2018-07-07T21:32:43.173Z,55.79
2018-07-07T21:35:10.831Z,56.85
2018-07-07T21:37:38.474Z,55.62
2018-07-07T21:40:06.342Z,56.68
2018-07-07T21:42:33.957Z,56.51
2018-07-07T21:45:01.656Z,55.85
2018-07-07T21:47:30.338Z,56.11
2018-07-07T21:49:57.966Z,57.27
2018-07-07T21:52:25.773Z,56.06
2018-07-07T21:54:53.493Z,56.62
2018-07-07T21:57:27.010Z,56.64
2018-07-07T21:59:54.667Z,56.64
2018-07-07T22:02:28.062Z,56.71
2018-07-07T22:05:01.448Z,57.99
2018-07-07T22:07:34.887Z,56.57
2018-07-07T22:10:03.054Z,56.85
2018-07-07T22:12:30.798Z,56.97
2018-07-07T22:14:58.443Z,57.26
2018-07-07T22:17:26.071Z,57.39
2018-07-07T22:19:54.462Z,57.00
2018-07-07T22:22:22.111Z,57.96
2018-07-07T22:24:50.022Z,57.61
2018-07-07T22:27:17.658Z,57.47
2018-07-07T22:29:45.311Z,57.21
2018-07-07T22:32:19.560Z,57.10
2018-07-07T22:34:47.269Z,57.86
2018-07-07T22:37:14.989Z,57.41
2018-07-07T22:39:43.402Z,58.07
2018-07-07T22:42:12.152Z,58.85
2018-07-07T22:44:40.761Z,58.71
2018-07-07T22:47:08.439Z,58.27
2018-07-07T22:49:36.162Z,58.73
2018-07-07T22:52:05.158Z,58.98
2018-07-07T22:54:32.889Z,59.14
2018-07-07T22:57:00.629Z,59.40
2018-07-07T22:59:28.409Z,59.68
2018-07-07T23:01:56.079Z,59.51
2018-07-07T23:04:23.772Z,59.63
2018-07-07T23:06:51.519Z,59.30
2018-07-07T23:11:46.642Z,59.31
2018-07-07T23:14:14.250Z,60.18
2018-07-07T23:16:42.004Z,60.45
2018-07-07T23:19:09.658Z,60.42
2018-07-07T23:21:37.395Z,60.28
2018-07-07T23:24:05.281Z,60.83
2018-07-07T23:26:32.855Z,60.68
2018-07-07T23:29:01.394Z,61.16
2018-07-07T23:31:29.194Z,62.77
2018-07-07T23:33:56.882Z,62.78
2018-07-07T23:36:24.518Z,62.87
2018-07-07T23:38:52.166Z,62.53
2018-07-07T23:41:19.855Z,63.44
2018-07-07T23:43:47.585Z,62.82
2018-07-07T23:46:15.168Z,62.98
2018-07-07T23:48:42.843Z,63.72
2018-07-07T23:51:10.592Z,63.94
2018-07-07T23:53:38.569Z,63.86
2018-07-07T23:56:06.644Z,63.88
2018-07-07T23:58:34.285Z,63.20
